Dera Ismail Khan Weather



Dera Ismail Khan's Current Weather

Temprature 13.05o clear sky

clear sky

Rain: 0 %

Min Temprature13.05o
Max Temprature13.05o
Humidity34
Wind Speed3.31 m/h
Sun Rise07:14:26
Sun Set17:41:39
Current Time: 23-Jan-2021 19:03:49
Lat/Lon: 31.8327, 70.9024




Dera Ismail Khan's Geo Location



Dera Ismail Khan's Weather Forecast

Time Overall Temp Min Temp Max Temp Humidity Wind Speed Rain
23-Jan-2021 (Sat)
20:00:00 clear sky 15.370 11.690 15.370 29 2.57 m/h 0 %
23:00:00 clear sky 10.350 8.000 10.350 42 0.29 m/h 0 %
24-Jan-2021 (Sun)
02:00:00 clear sky 8.690 7.990 8.690 46 1.81 m/h 0 %
05:00:00 clear sky 8.050 7.960 8.050 44 3.04 m/h 0 %
08:00:00 clear sky 9.070 9.070 9.070 41 3.17 m/h 0 %
11:00:00 clear sky 17.830 17.830 17.830 23 3.8 m/h 0 %
14:00:00 clear sky 20.670 20.670 20.670 18 3.01 m/h 0 %
17:00:00 clear sky 17.290 17.290 17.290 24 1.81 m/h 0 %
20:00:00 clear sky 9.520 9.520 9.520 38 1.34 m/h 0 %
23:00:00 clear sky 7.670 7.670 7.670 42 1.16 m/h 0 %
25-Jan-2021 (Mon)
02:00:00 clear sky 8.610 8.610 8.610 38 2.36 m/h 0 %
05:00:00 clear sky 8.000 8.000 8.000 41 2.42 m/h 0 %
08:00:00 clear sky 9.430 9.430 9.430 37 2.29 m/h 0 %
11:00:00 clear sky 19.890 19.890 19.890 19 2.03 m/h 0 %
14:00:00 clear sky 22.330 22.330 22.330 17 0.97 m/h 0 %
17:00:00 clear sky 17.900 17.900 17.900 26 0.95 m/h 0 %
20:00:00 clear sky 12.260 12.260 12.260 35 2.1 m/h 0 %
23:00:00 clear sky 8.920 8.920 8.920 44 0.47 m/h 0 %
26-Jan-2021 (Tue)
02:00:00 clear sky 8.140 8.140 8.140 46 1.03 m/h 0 %
05:00:00 clear sky 6.970 6.970 6.970 53 0.69 m/h 0 %
08:00:00 clear sky 9.540 9.540 9.540 42 1.17 m/h 0 %
11:00:00 clear sky 19.790 19.790 19.790 21 2.07 m/h 0 %
14:00:00 clear sky 22.240 22.240 22.240 18 1.8 m/h 0 %
17:00:00 clear sky 18.860 18.860 18.860 24 1.33 m/h 0 %
20:00:00 clear sky 11.630 11.630 11.630 38 1.8 m/h 0 %
23:00:00 clear sky 8.820 8.820 8.820 47 0.79 m/h 0 %
27-Jan-2021 (Wed)
02:00:00 clear sky 7.650 7.650 7.650 52 0.45 m/h 0 %
05:00:00 clear sky 8.080 8.080 8.080 49 1.67 m/h 0 %
08:00:00 clear sky 10.200 10.200 10.200 41 1.65 m/h 0 %
11:00:00 clear sky 20.400 20.400 20.400 21 2.18 m/h 0 %
14:00:00 few clouds 22.710 22.710 22.710 18 1.05 m/h 0 %
17:00:00 few clouds 18.790 18.790 18.790 25 0.65 m/h 0 %
20:00:00 clear sky 12.220 12.220 12.220 37 1.5 m/h 0 %
23:00:00 clear sky 9.720 9.720 9.720 43 1.35 m/h 0 %
28-Jan-2021 (Thu)
02:00:00 clear sky 8.410 8.410 8.410 48 1.21 m/h 0 %
05:00:00 clear sky 7.050 7.050 7.050 55 0.81 m/h 0 %
08:00:00 clear sky 9.370 9.370 9.370 46 0.42 m/h 0 %
11:00:00 clear sky 20.000 20.000 20.000 22 0.36 m/h 0 %
14:00:00 clear sky 22.730 22.730 22.730 18 0.36 m/h 0 %
17:00:00 clear sky 18.940 18.940 18.940 25 0.47 m/h 0 %


Dera Ismail Khan's Tourist Spots

Historical Places in Dera Ismail Khan

Famous Cities (60)